createdAt,value
2019-03-15T00:00:24.002Z,74.13
2019-03-15T00:02:50.502Z,74.13
2019-03-15T00:05:17.968Z,74.18
2019-03-15T00:07:44.137Z,74.21
2019-03-15T00:10:10.605Z,74.08
2019-03-15T00:12:37.884Z,73.88
2019-03-15T00:15:06.875Z,74.04
2019-03-15T00:17:33.120Z,74.10
2019-03-15T00:19:59.354Z,73.62
2019-03-15T00:22:26.774Z,73.73
2019-03-15T00:24:53.001Z,73.38
2019-03-15T00:27:19.124Z,73.67
2019-03-15T00:29:45.309Z,73.55
2019-03-15T00:32:12.955Z,73.39
2019-03-15T00:34:39.068Z,73.66
2019-03-15T00:37:05.181Z,73.91
2019-03-15T00:39:31.293Z,73.42
2019-03-15T00:41:57.607Z,73.39
2019-03-15T00:44:23.738Z,73.60
2019-03-15T00:46:49.860Z,73.97
2019-03-15T00:49:15.985Z,73.38
2019-03-15T00:51:42.090Z,73.55
2019-03-15T00:54:09.303Z,73.37
2019-03-15T00:56:35.491Z,73.67
2019-03-15T00:59:01.847Z,73.70
2019-03-15T01:01:27.979Z,73.50
2019-03-15T01:03:55.410Z,73.22
2019-03-15T01:06:21.631Z,72.81
2019-03-15T01:08:47.912Z,72.58
2019-03-15T01:11:13.995Z,73.10
2019-03-15T01:13:40.086Z,72.44
2019-03-15T01:16:06.431Z,72.58
2019-03-15T01:18:32.516Z,72.76
2019-03-15T01:20:59.742Z,72.56
2019-03-15T01:23:25.847Z,72.61
2019-03-15T01:25:52.065Z,72.28
2019-03-15T01:28:18.282Z,72.68
2019-03-15T01:30:44.389Z,72.38
2019-03-15T01:33:10.525Z,72.57
2019-03-15T01:35:36.653Z,72.52
2019-03-15T01:38:02.982Z,72.59
2019-03-15T01:40:30.077Z,72.56
2019-03-15T01:42:56.396Z,72.63
2019-03-15T01:45:22.510Z,72.40
2019-03-15T01:47:48.697Z,72.11
2019-03-15T01:50:14.982Z,72.33
2019-03-15T01:52:41.242Z,72.21
2019-03-15T01:55:07.424Z,72.91
2019-03-15T01:57:33.744Z,72.65
2019-03-15T01:59:59.971Z,72.67
2019-03-15T02:02:26.087Z,72.67
2019-03-15T02:04:52.294Z,72.28
2019-03-15T02:07:18.517Z,72.30
2019-03-15T02:09:44.736Z,72.49
2019-03-15T02:12:10.810Z,72.16
2019-03-15T02:14:36.930Z,72.31
2019-03-15T02:17:03.119Z,72.62
2019-03-15T02:19:29.235Z,72.20
2019-03-15T02:21:55.385Z,72.05
2019-03-15T02:24:21.477Z,72.07
2019-03-15T02:26:48.464Z,72.06
2019-03-15T02:29:14.744Z,72.19
2019-03-15T02:31:40.843Z,72.21
2019-03-15T02:34:07.033Z,72.21
2019-03-15T02:36:33.138Z,72.34
2019-03-15T02:38:59.235Z,72.16
2019-03-15T02:41:25.464Z,71.64
2019-03-15T02:43:51.635Z,71.04
2019-03-15T02:46:17.871Z,71.73
2019-03-15T02:48:44.054Z,71.66
2019-03-15T02:51:10.276Z,71.37
2019-03-15T02:53:36.517Z,71.45
2019-03-15T02:56:02.865Z,71.40
2019-03-15T02:58:29.069Z,71.20
2019-03-15T03:00:55.202Z,71.69
2019-03-15T03:03:21.545Z,71.14
2019-03-15T03:05:47.723Z,70.98
2019-03-15T03:08:14.390Z,71.10
2019-03-15T03:10:41.083Z,70.89
2019-03-15T03:13:07.207Z,70.90
2019-03-15T03:15:33.427Z,70.95
2019-03-15T03:17:59.556Z,70.74
2019-03-15T03:20:25.619Z,71.28
2019-03-15T03:22:51.847Z,71.11
2019-03-15T03:25:18.019Z,71.72
2019-03-15T03:27:44.252Z,71.77
2019-03-15T03:30:10.554Z,71.50
2019-03-15T03:32:36.847Z,71.41
2019-03-15T03:35:04.776Z,71.12
2019-03-15T03:37:30.893Z,71.31
2019-03-15T03:39:57.001Z,71.33
2019-03-15T03:42:23.248Z,71.19
2019-03-15T03:44:49.654Z,71.43
2019-03-15T03:47:15.822Z,71.59
2019-03-15T03:49:42.008Z,71.28
2019-03-15T03:52:08.176Z,71.40
2019-03-15T03:54:34.479Z,72.24
2019-03-15T03:57:00.759Z,71.31
2019-03-15T03:59:26.971Z,71.01
2019-03-15T04:01:53.430Z,71.22
2019-03-15T04:04:19.614Z,71.54
2019-03-15T04:06:45.870Z,71.24
2019-03-15T04:09:12.177Z,71.11
2019-03-15T04:11:38.298Z,71.14
2019-03-15T04:14:04.664Z,70.75
2019-03-15T04:16:30.788Z,71.25
2019-03-15T04:18:56.932Z,71.26
2019-03-15T04:21:23.138Z,71.22
2019-03-15T04:23:49.287Z,71.27
2019-03-15T04:26:15.519Z,71.51
2019-03-15T04:28:41.728Z,71.39
2019-03-15T04:31:07.848Z,71.68
2019-03-15T04:33:34.048Z,71.39
2019-03-15T04:36:00.289Z,71.44
2019-03-15T04:38:26.501Z,71.74
2019-03-15T04:40:52.789Z,72.06
2019-03-15T04:43:18.998Z,71.42
2019-03-15T04:45:45.259Z,71.38
2019-03-15T04:48:11.496Z,71.29
2019-03-15T04:50:37.681Z,71.66
2019-03-15T04:53:03.804Z,71.67
2019-03-15T04:55:30.241Z,71.64
2019-03-15T04:57:56.344Z,71.53
2019-03-15T05:00:22.599Z,71.37
2019-03-15T05:02:48.725Z,71.79
2019-03-15T05:05:14.867Z,71.54
2019-03-15T05:07:41.066Z,71.23
2019-03-15T05:10:08.093Z,71.59
2019-03-15T05:12:34.386Z,71.34
2019-03-15T05:15:00.767Z,71.64
2019-03-15T05:17:26.990Z,71.21
2019-03-15T05:19:53.206Z,71.38
2019-03-15T05:22:19.362Z,71.06
2019-03-15T05:24:45.512Z,71.54
2019-03-15T05:27:11.836Z,71.30
2019-03-15T05:29:37.998Z,71.52
2019-03-15T05:32:04.329Z,71.22
2019-03-15T05:34:30.510Z,71.23
2019-03-15T05:36:56.768Z,71.02
2019-03-15T05:39:22.940Z,71.07
2019-03-15T05:41:49.047Z,71.03
2019-03-15T05:44:15.123Z,70.90
2019-03-15T05:46:41.443Z,70.76
2019-03-15T05:49:07.770Z,70.96
2019-03-15T05:51:33.926Z,70.88
2019-03-15T05:54:00.107Z,71.22
2019-03-15T05:56:26.328Z,70.75
2019-03-15T05:58:52.443Z,71.00
2019-03-15T06:01:18.675Z,71.02
2019-03-15T06:03:49.011Z,71.36
2019-03-15T06:06:12.899Z,71.75
2019-03-15T06:08:39.143Z,72.00
2019-03-15T06:11:05.452Z,71.95
2019-03-15T06:13:31.564Z,72.09
2019-03-15T06:15:57.706Z,72.33
2019-03-15T06:18:23.816Z,72.62
2019-03-15T06:20:49.968Z,72.32
2019-03-15T06:23:17.063Z,73.29
2019-03-15T06:25:43.232Z,72.64
2019-03-15T06:28:09.455Z,73.28
2019-03-15T06:30:35.546Z,72.64
2019-03-15T06:33:01.770Z,73.38
2019-03-15T06:35:28.049Z,73.37
2019-03-15T06:37:54.266Z,73.67
2019-03-15T06:40:20.469Z,73.68
2019-03-15T06:42:46.728Z,74.42
2019-03-15T06:45:13.495Z,73.99
2019-03-15T06:47:39.847Z,74.45
2019-03-15T06:50:07.032Z,74.11
2019-03-15T06:52:33.285Z,74.28
2019-03-15T06:55:00.723Z,74.52
2019-03-15T06:57:26.949Z,74.65
2019-03-15T06:59:53.088Z,74.54
2019-03-15T07:02:19.662Z,74.52
2019-03-15T07:04:45.914Z,74.29
2019-03-15T07:07:15.103Z,73.68
2019-03-15T07:09:41.271Z,73.87
2019-03-15T07:12:09.978Z,73.58
2019-03-15T07:14:36.292Z,73.05
2019-03-15T07:17:03.703Z,72.93
2019-03-15T07:19:30.646Z,72.94
2019-03-15T07:21:56.938Z,72.99
2019-03-15T07:24:25.641Z,73.57
2019-03-15T07:26:51.939Z,72.73
2019-03-15T07:29:19.081Z,72.42
2019-03-15T07:31:45.398Z,73.11
2019-03-15T07:34:13.923Z,72.64
2019-03-15T07:36:39.490Z,72.47
2019-03-15T07:39:05.929Z,72.54
2019-03-15T07:41:32.169Z,73.00
2019-03-15T07:43:58.334Z,72.37
2019-03-15T07:46:24.518Z,73.11
2019-03-15T07:48:51.834Z,73.33
2019-03-15T07:51:18.004Z,73.94
2019-03-15T07:53:44.252Z,74.75
2019-03-15T07:56:10.460Z,74.44
2019-03-15T07:58:37.710Z,75.31
2019-03-15T08:01:04.057Z,75.27
2019-03-15T08:03:30.268Z,75.80
2019-03-15T08:05:56.393Z,76.17
2019-03-15T08:08:22.668Z,76.74
2019-03-15T08:10:48.867Z,76.81
2019-03-15T08:13:15.061Z,75.81
2019-03-15T08:15:41.519Z,76.95
2019-03-15T08:18:07.597Z,76.38
2019-03-15T08:20:33.832Z,77.50
2019-03-15T08:22:59.916Z,77.66
2019-03-15T08:25:26.140Z,78.00
2019-03-15T08:27:52.241Z,77.84
2019-03-15T08:30:18.493Z,78.37
2019-03-15T08:32:44.790Z,78.83
2019-03-15T08:35:12.388Z,78.89
2019-03-15T08:37:38.697Z,78.72
2019-03-15T08:40:09.408Z,79.04
2019-03-15T08:42:35.734Z,79.30
2019-03-15T08:45:04.636Z,79.30
2019-03-15T08:47:30.884Z,79.55
2019-03-15T08:49:57.008Z,79.06
2019-03-15T08:52:23.110Z,79.51
2019-03-15T08:54:49.449Z,79.84
2019-03-15T08:57:15.524Z,79.50
2019-03-15T08:59:53.910Z,79.81
2019-03-15T09:02:09.842Z,79.71
2019-03-15T09:04:36.080Z,79.76
2019-03-15T09:07:02.377Z,80.17
2019-03-15T09:09:29.628Z,80.38
2019-03-15T09:11:55.815Z,80.81
2019-03-15T09:14:22.163Z,80.20
2019-03-15T09:16:49.273Z,80.83
2019-03-15T09:19:15.492Z,80.33
2019-03-15T09:21:41.596Z,80.13
2019-03-15T09:24:09.673Z,80.48
2019-03-15T09:26:35.798Z,80.44
2019-03-15T09:29:02.241Z,81.08
2019-03-15T09:31:28.556Z,80.54
2019-03-15T09:33:54.792Z,81.33
2019-03-15T09:36:20.917Z,81.60
2019-03-15T09:38:47.126Z,82.04
2019-03-15T09:41:13.303Z,82.35
2019-03-15T09:43:39.452Z,82.48
2019-03-15T09:46:05.703Z,82.93
2019-03-15T09:48:31.899Z,82.81
2019-03-15T09:50:58.028Z,83.01
2019-03-15T09:53:24.128Z,82.96
2019-03-15T09:55:50.436Z,83.26
2019-03-15T09:58:16.690Z,83.16
2019-03-15T10:00:42.805Z,83.21
2019-03-15T10:03:21.459Z,83.39
2019-03-15T10:05:37.185Z,83.39
2019-03-15T10:08:03.393Z,83.46
2019-03-15T10:10:29.566Z,83.51
2019-03-15T10:13:05.910Z,83.55
2019-03-15T10:15:26.461Z,83.57
2019-03-15T10:17:52.144Z,83.70
2019-03-15T10:20:18.443Z,83.66
2019-03-15T10:22:44.727Z,83.71
2019-03-15T10:25:12.256Z,83.55
2019-03-15T10:27:38.617Z,83.65
2019-03-15T10:30:16.250Z,83.89
2019-03-15T10:32:42.490Z,83.83
2019-03-15T10:35:10.794Z,83.51
2019-03-15T10:37:36.909Z,83.24
2019-03-15T10:40:09.554Z,83.04
2019-03-15T10:42:36.877Z,82.89
2019-03-15T10:45:06.695Z,83.09
2019-03-15T10:47:32.811Z,83.34
2019-03-15T10:49:58.946Z,83.55
2019-03-15T10:52:25.119Z,83.70
2019-03-15T10:54:51.231Z,83.55
2019-03-15T10:57:17.372Z,83.60
2019-03-15T10:59:43.605Z,83.70
2019-03-15T11:02:10.344Z,83.84
2019-03-15T11:04:36.458Z,83.92
2019-03-15T11:07:02.800Z,84.02
2019-03-15T11:09:29.244Z,83.97
2019-03-15T11:11:55.428Z,83.92
2019-03-15T11:14:21.568Z,83.80
2019-03-15T11:16:47.780Z,83.50
2019-03-15T11:19:15.615Z,83.52
2019-03-15T11:21:42.175Z,83.51
2019-03-15T11:24:08.388Z,83.22
2019-03-15T11:26:34.582Z,83.01
2019-03-15T11:29:00.939Z,82.99
2019-03-15T11:31:27.237Z,82.96
2019-03-15T11:33:53.562Z,83.11
2019-03-15T11:36:19.646Z,83.23
2019-03-15T11:38:45.862Z,82.73
2019-03-15T11:41:12.284Z,82.61
2019-03-15T11:43:38.428Z,82.90
2019-03-15T11:46:04.774Z,83.13
2019-03-15T11:48:31.123Z,83.27
2019-03-15T11:50:57.461Z,82.84
2019-03-15T11:53:23.650Z,82.93
2019-03-15T11:55:49.937Z,82.32
2019-03-15T11:58:16.029Z,81.73
2019-03-15T12:00:42.206Z,81.69
2019-03-15T12:03:08.330Z,81.28
2019-03-15T12:05:34.673Z,80.64
2019-03-15T12:08:00.899Z,80.50
2019-03-15T12:10:27.190Z,79.75
2019-03-15T12:12:53.339Z,79.20
2019-03-15T12:15:19.645Z,78.90
2019-03-15T12:17:45.881Z,79.08
2019-03-15T12:20:12.764Z,79.35
2019-03-15T12:22:39.234Z,78.30
2019-03-15T12:25:07.409Z,78.01
2019-03-15T12:27:33.623Z,77.99
2019-03-15T12:29:59.844Z,76.95
2019-03-15T12:32:26.073Z,77.83
2019-03-15T12:34:52.224Z,76.12
2019-03-15T12:37:18.381Z,75.55
2019-03-15T12:39:44.531Z,75.95
2019-03-15T12:42:10.850Z,75.80
2019-03-15T12:44:39.191Z,75.54
2019-03-15T12:47:06.319Z,75.41
2019-03-15T12:49:32.925Z,75.11
2019-03-15T12:51:59.065Z,75.65
2019-03-15T12:54:25.259Z,75.23
2019-03-15T12:56:54.049Z,75.32
2019-03-15T12:59:19.560Z,76.45
2019-03-15T13:01:45.737Z,76.08
2019-03-15T13:04:12.285Z,77.49
2019-03-15T13:06:39.509Z,77.51
2019-03-15T13:09:05.732Z,77.17
2019-03-15T13:11:32.046Z,76.74
2019-03-15T13:13:58.303Z,77.03
2019-03-15T13:16:24.571Z,77.25
2019-03-15T13:18:50.891Z,76.62
2019-03-15T13:21:17.030Z,75.70
2019-03-15T13:23:43.298Z,74.86
2019-03-15T13:26:09.444Z,75.37
2019-03-15T13:28:35.707Z,74.67
2019-03-15T13:31:01.902Z,75.05
2019-03-15T13:33:28.180Z,75.01
2019-03-15T13:35:54.424Z,76.24
2019-03-15T13:38:20.659Z,76.48
2019-03-15T13:40:46.878Z,76.75
2019-03-15T13:43:16.024Z,77.12
2019-03-15T13:45:44.778Z,77.53
2019-03-15T13:48:11.083Z,78.87
2019-03-15T13:50:37.327Z,79.12
2019-03-15T13:53:03.441Z,79.14
2019-03-15T13:55:29.532Z,79.22
2019-03-15T13:57:55.909Z,79.21
2019-03-15T14:00:22.190Z,79.68
2019-03-15T14:02:48.482Z,79.34
2019-03-15T14:05:14.717Z,79.03
2019-03-15T14:07:40.814Z,78.91
2019-03-15T14:10:11.887Z,78.18
2019-03-15T14:12:38.118Z,78.35
2019-03-15T14:15:07.906Z,77.98
2019-03-15T14:17:34.093Z,77.40
2019-03-15T14:20:00.411Z,76.56
2019-03-15T14:22:27.658Z,75.63
2019-03-15T14:24:53.787Z,75.56
2019-03-15T14:27:27.606Z,74.75
2019-03-15T14:29:48.310Z,74.94
2019-03-15T14:32:14.799Z,73.97
2019-03-15T14:34:41.007Z,74.07
2019-03-15T14:37:10.193Z,74.61
2019-03-15T14:39:35.743Z,75.14
2019-03-15T14:42:02.047Z,74.20
2019-03-15T14:44:28.229Z,74.19
2019-03-15T14:46:54.359Z,74.41
2019-03-15T14:49:20.559Z,74.45
2019-03-15T14:51:47.009Z,74.91
2019-03-15T14:54:13.249Z,74.22
2019-03-15T14:56:39.420Z,76.30
2019-03-15T14:59:05.664Z,78.08
2019-03-15T15:01:31.998Z,78.54
2019-03-15T15:03:58.259Z,78.96
2019-03-15T15:06:24.578Z,78.29
2019-03-15T15:08:50.912Z,78.33
2019-03-15T15:11:17.047Z,79.23
2019-03-15T15:13:43.287Z,79.47
2019-03-15T15:16:09.548Z,79.63
2019-03-15T15:18:35.664Z,79.33
2019-03-15T15:21:01.903Z,79.97
2019-03-15T15:23:28.247Z,80.63
2019-03-15T15:25:54.495Z,80.88
2019-03-15T15:28:20.620Z,80.90
2019-03-15T15:30:46.975Z,80.76
2019-03-15T15:33:13.257Z,80.95
2019-03-15T15:35:41.619Z,81.44
2019-03-15T15:38:07.728Z,81.50
2019-03-15T15:40:33.975Z,81.40
2019-03-15T15:43:00.426Z,81.40
2019-03-15T15:45:29.718Z,81.79
2019-03-15T15:47:57.500Z,81.36
2019-03-15T15:50:23.762Z,80.74
2019-03-15T15:52:49.970Z,80.63
2019-03-15T15:55:19.503Z,80.29
2019-03-15T15:57:47.645Z,80.36
2019-03-15T16:00:17.532Z,79.89
2019-03-15T16:02:43.927Z,80.22
2019-03-15T16:05:10.478Z,80.05
2019-03-15T16:07:36.790Z,79.60
2019-03-15T16:10:06.157Z,79.32
2019-03-15T16:12:32.300Z,78.99
2019-03-15T16:14:58.627Z,79.26
2019-03-15T16:17:24.777Z,79.48
2019-03-15T16:19:51.103Z,79.60
2019-03-15T16:22:17.310Z,79.13
2019-03-15T16:24:43.501Z,78.84
2019-03-15T16:27:09.643Z,78.16
2019-03-15T16:29:35.977Z,78.79
2019-03-15T16:32:02.406Z,78.42
2019-03-15T16:34:28.726Z,78.21
2019-03-15T16:36:54.953Z,77.82
2019-03-15T16:39:21.233Z,78.26
2019-03-15T16:41:47.345Z,78.05
2019-03-15T16:44:13.738Z,77.98
2019-03-15T16:46:39.962Z,77.98
2019-03-15T16:49:06.077Z,77.77
2019-03-15T16:51:32.247Z,77.73
2019-03-15T16:53:58.499Z,76.62
2019-03-15T16:56:24.920Z,76.85
2019-03-15T16:58:51.145Z,76.73
2019-03-15T17:01:17.716Z,77.16
2019-03-15T17:03:43.956Z,76.79
2019-03-15T17:06:10.310Z,76.56
2019-03-15T17:08:36.762Z,76.20
2019-03-15T17:11:03.488Z,75.72
2019-03-15T17:13:29.669Z,75.03
2019-03-15T17:15:56.096Z,75.28
2019-03-15T17:18:22.388Z,74.66
2019-03-15T17:20:49.739Z,74.08
2019-03-15T17:23:15.935Z,73.81
2019-03-15T17:25:42.207Z,74.01
2019-03-15T17:28:08.446Z,73.38
2019-03-15T17:30:36.392Z,72.91
2019-03-15T17:33:05.966Z,72.75
2019-03-15T17:35:30.797Z,71.00
2019-03-15T17:37:57.097Z,70.88
2019-03-15T17:40:23.413Z,72.05
2019-03-15T17:42:49.740Z,71.29
2019-03-15T17:45:16.062Z,70.68
2019-03-15T17:47:42.405Z,70.46
2019-03-15T17:50:15.346Z,69.92
2019-03-15T17:52:41.690Z,69.30
2019-03-15T17:55:08.150Z,69.92
2019-03-15T17:57:34.500Z,69.35
2019-03-15T18:00:33.091Z,68.98
2019-03-15T18:02:59.423Z,69.04
2019-03-15T18:05:25.853Z,69.43
2019-03-15T18:07:52.299Z,69.17
2019-03-15T18:10:21.755Z,68.34
2019-03-15T18:12:48.013Z,66.69
2019-03-15T18:15:14.320Z,66.93
2019-03-15T18:17:40.698Z,66.95
2019-03-15T18:20:07.815Z,65.55
2019-03-15T18:22:34.256Z,66.14
2019-03-15T18:25:00.625Z,66.13
2019-03-15T18:27:27.069Z,65.49
2019-03-15T18:29:53.570Z,65.90
2019-03-15T18:32:20.418Z,65.16
2019-03-15T18:34:47.189Z,65.74
2019-03-15T18:37:13.841Z,63.97
2019-03-15T18:39:40.176Z,65.29
2019-03-15T18:42:06.509Z,64.39
2019-03-15T18:44:32.975Z,63.19
2019-03-15T18:46:59.194Z,64.54
2019-03-15T18:49:26.631Z,64.62
2019-03-15T18:51:52.856Z,63.66
2019-03-15T18:54:19.287Z,63.17
2019-03-15T18:56:45.517Z,62.73
2019-03-15T18:59:11.885Z,62.83
2019-03-15T19:01:38.291Z,62.58
2019-03-15T19:04:04.676Z,63.44
2019-03-15T19:06:30.923Z,63.67
2019-03-15T19:08:57.271Z,63.76
2019-03-15T19:11:23.612Z,63.44
2019-03-15T19:13:49.955Z,64.18
2019-03-15T19:16:20.255Z,63.23
2019-03-15T19:18:44.365Z,62.76
2019-03-15T19:21:10.659Z,63.90
2019-03-15T19:23:37.286Z,64.24
2019-03-15T19:26:03.689Z,63.06
2019-03-15T19:28:30.012Z,62.73
2019-03-15T19:30:56.394Z,63.04
2019-03-15T19:33:22.751Z,64.01
2019-03-15T19:35:49.154Z,63.43
2019-03-15T19:38:15.375Z,63.89
2019-03-15T19:40:41.627Z,63.08
2019-03-15T19:43:08.090Z,64.17
2019-03-15T19:45:34.424Z,63.01
2019-03-15T19:48:00.609Z,64.39
2019-03-15T19:50:27.054Z,63.82
2019-03-15T19:52:53.417Z,63.79
2019-03-15T19:55:19.820Z,63.03
2019-03-15T19:57:46.311Z,63.65
2019-03-15T20:00:19.464Z,64.23
2019-03-15T20:02:45.977Z,63.94
2019-03-15T20:05:12.691Z,64.41
2019-03-15T20:07:39.101Z,64.16
2019-03-15T20:10:16.115Z,63.76
2019-03-15T20:12:40.845Z,63.77
2019-03-15T20:15:09.595Z,64.23
2019-03-15T20:17:36.083Z,63.09
2019-03-15T20:20:04.965Z,63.11
2019-03-15T20:22:31.630Z,61.85
2019-03-15T20:24:58.961Z,63.10
2019-03-15T20:27:25.641Z,62.44
2019-03-15T20:29:52.015Z,63.03
2019-03-15T20:32:18.369Z,62.40
2019-03-15T20:34:44.843Z,62.10
2019-03-15T20:37:11.190Z,61.69
2019-03-15T20:39:37.678Z,62.91
2019-03-15T20:42:04.761Z,62.52
2019-03-15T20:44:31.050Z,63.00
2019-03-15T20:46:57.191Z,62.26
2019-03-15T20:49:23.423Z,62.46
2019-03-15T20:51:49.791Z,62.89
2019-03-15T20:54:16.290Z,62.60
2019-03-15T20:56:42.653Z,62.41
2019-03-15T20:59:08.940Z,62.01
2019-03-15T21:01:35.274Z,62.53
2019-03-15T21:04:02.906Z,61.90
2019-03-15T21:06:29.423Z,62.54
2019-03-15T21:08:58.301Z,61.20
2019-03-15T21:11:24.858Z,61.54
2019-03-15T21:13:51.089Z,62.55
2019-03-15T21:16:18.309Z,62.79
2019-03-15T21:18:44.983Z,62.03
2019-03-15T21:21:11.499Z,62.38
2019-03-15T21:23:37.608Z,61.48
2019-03-15T21:26:03.967Z,61.43
2019-03-15T21:28:30.409Z,61.00
2019-03-15T21:30:56.851Z,61.91
2019-03-15T21:33:23.469Z,62.59
2019-03-15T21:35:49.745Z,61.19
2019-03-15T21:38:15.975Z,61.25
2019-03-15T21:40:42.176Z,62.23
2019-03-15T21:43:08.708Z,62.02
2019-03-15T21:45:35.123Z,62.18
2019-03-15T21:48:01.546Z,61.45
2019-03-15T21:50:27.796Z,62.09
2019-03-15T21:52:54.223Z,62.46
2019-03-15T21:55:20.789Z,61.33
2019-03-15T21:57:46.994Z,61.31
2019-03-15T22:00:14.427Z,61.12
2019-03-15T22:02:41.792Z,62.79
2019-03-15T22:05:08.242Z,62.24
2019-03-15T22:07:34.640Z,62.34
2019-03-15T22:10:00.965Z,61.75
2019-03-15T22:12:28.456Z,61.74
2019-03-15T22:14:54.722Z,61.95
2019-03-15T22:17:21.199Z,62.92
2019-03-15T22:19:47.610Z,62.09
2019-03-15T22:22:13.938Z,62.36
2019-03-15T22:24:40.317Z,62.93
2019-03-15T22:27:06.905Z,63.28
2019-03-15T22:29:33.217Z,62.85
2019-03-15T22:31:59.645Z,63.14
2019-03-15T22:34:26.012Z,63.53
2019-03-15T22:36:52.407Z,63.30
2019-03-15T22:39:18.847Z,63.85
2019-03-15T22:41:45.218Z,63.68
2019-03-15T22:44:11.563Z,64.01
2019-03-15T22:46:37.890Z,63.03
2019-03-15T22:49:04.356Z,64.31
2019-03-15T22:51:30.794Z,64.24
2019-03-15T22:53:57.198Z,65.41
2019-03-15T22:56:23.381Z,65.28
2019-03-15T22:58:49.544Z,65.92
2019-03-15T23:01:29.310Z,65.92
2019-03-15T23:03:44.014Z,66.31
2019-03-15T23:06:10.482Z,66.58
2019-03-15T23:08:36.591Z,67.05
2019-03-15T23:11:03.054Z,67.47
2019-03-15T23:13:29.527Z,68.05
2019-03-15T23:15:55.713Z,68.00
2019-03-15T23:18:21.965Z,68.29
2019-03-15T23:20:48.240Z,68.56
2019-03-15T23:23:23.684Z,68.96
2019-03-15T23:25:43.248Z,68.51
2019-03-15T23:28:09.996Z,68.24
2019-03-15T23:30:36.456Z,68.63
2019-03-15T23:33:02.794Z,68.20
2019-03-15T23:35:29.130Z,68.34
2019-03-15T23:37:55.375Z,67.57
2019-03-15T23:40:21.496Z,67.74
2019-03-15T23:42:47.790Z,68.53
2019-03-15T23:45:14.127Z,68.19
2019-03-15T23:47:40.389Z,68.16
2019-03-15T23:50:13.572Z,68.24
2019-03-15T23:52:39.770Z,68.36
2019-03-15T23:55:06.186Z,68.37
2019-03-15T23:57:32.279Z,67.75
2019-03-15T23:59:58.409Z,67.50
